Time;durP1;ratioP1;P1;durP2;ratioP2;P2;SDS_P1;SDS_P2;PMS_P1;PMS_P2;Temp;Humidity;BMP_temperature;BMP_pressure;BME280_temperature;BME280_humidity;BME280_pressure;Samples;Min_cycle;Max_cycle;Signal;HPM_P1;HPM_P2
2023/09/29 00:02:56;;;;;;;;;;;;;;;24.55;30.10;100972.11;109008;1267;67583;-88
2023/09/29 00:05:22;;;;;;;;;;;;;;;24.56;30.46;100974.67;108998;1266;67757;-88
2023/09/29 00:07:47;;;;;;;;;;;;;;;24.55;30.36;100975.77;109008;1266;67650;-89
2023/09/29 00:10:16;;;;;;;;;;;;;;;24.55;30.14;100976.30;109010;1266;67633;-89
2023/09/29 00:12:42;;;;;;;;;;;;;;;24.55;30.19;100980.55;108964;1267;67611;-88
2023/09/29 00:15:07;;;;;;;;;;;;;;;24.54;30.11;100977.79;108900;1266;67431;-89
2023/09/29 00:17:33;;;;;;;;;;;;;;;24.54;30.24;100979.73;109024;1265;67626;-88
2023/09/29 00:19:59;;;;;;;;;;;;;;;24.53;29.97;100978.66;109032;1265;67605;-89
2023/09/29 00:22:24;;;;;;;;;;;;;;;24.53;30.04;100979.67;109047;1267;67627;-89
2023/09/29 00:24:49;;;;;;;;;;;;;;;24.53;30.18;100983.04;108930;1267;67595;-89
2023/09/29 00:29:57;;;;;;;;;;;;;;;24.52;30.05;100978.98;108855;1269;67633;-89
2023/09/29 00:32:22;;;;;;;;;;;;;;;24.52;30.17;100980.36;108808;1270;67531;-88
2023/09/29 00:34:48;;;;;;;;;;;;;;;24.52;30.11;100981.04;108871;1265;67809;-89
2023/09/29 00:37:14;;;;;;;;;;;;;;;24.52;30.15;100980.32;108964;1266;67623;-89
2023/09/29 00:39:40;;;;;;;;;;;;;;;24.51;30.20;100979.86;108981;1266;67672;-89
2023/09/29 00:42:06;;;;;;;;;;;;;;;24.51;30.04;100980.98;108953;1266;67392;-89
2023/09/29 00:44:33;;;;;;;;;;;;;;;24.52;29.94;100980.01;109095;1266;67590;-89
2023/09/29 00:46:59;;;;;;;;;;;;;;;24.51;30.01;100978.98;108923;1266;67649;-89
2023/09/29 00:49:26;;;;;;;;;;;;;;;24.51;30.15;100977.95;109015;1265;68284;-89
2023/09/29 00:51:52;;;;;;;;;;;;;;;24.51;30.01;100980.79;108998;1266;67843;-89
2023/09/29 00:54:22;;;;;;;;;;;;;;;24.51;30.15;100981.29;108960;1271;66926;31
2023/09/29 00:56:47;;;;;;;;;;;;;;;24.50;30.07;100981.30;108943;1266;67581;-89
2023/09/29 00:59:14;;;;;;;;;;;;;;;24.50;30.09;100979.71;109082;1268;67808;-90
2023/09/29 01:01:41;;;;;;;;;;;;;;;24.50;29.94;100981.92;109101;1267;67832;-89
2023/09/29 01:04:07;;;;;;;;;;;;;;;24.50;29.96;100982.80;109006;1267;67694;-90
2023/09/29 01:06:32;;;;;;;;;;;;;;;24.50;29.91;100979.35;109007;1266;67523;-90
2023/09/29 01:08:59;;;;;;;;;;;;;;;24.50;29.98;100978.06;108966;1267;67542;-90
2023/09/29 01:11:25;;;;;;;;;;;;;;;24.50;30.07;100976.52;109031;1266;67595;-90
2023/09/29 01:13:51;;;;;;;;;;;;;;;24.50;30.06;100975.95;109021;1266;67716;-90
2023/09/29 01:16:17;;;;;;;;;;;;;;;24.49;30.07;100977.71;109031;1269;67601;-90
2023/09/29 01:18:42;;;;;;;;;;;;;;;24.49;30.00;100981.26;109055;1266;67538;-90
2023/09/29 01:23:45;;;;;;;;;;;;;;;24.49;30.06;100977.24;108865;1268;74344;-90
2023/09/29 01:26:10;;;;;;;;;;;;;;;24.48;29.92;100980.58;108991;1265;67688;-90
2023/09/29 01:28:36;;;;;;;;;;;;;;;24.48;30.06;100981.25;109071;1265;67687;-90
2023/09/29 01:31:01;;;;;;;;;;;;;;;24.48;29.83;100981.67;109089;1265;67650;-90
2023/09/29 01:33:26;;;;;;;;;;;;;;;24.47;30.09;100982.76;108948;1266;67521;-88
2023/09/29 01:35:52;;;;;;;;;;;;;;;24.48;30.11;100987.43;109041;1265;67684;-88
2023/09/29 01:38:17;;;;;;;;;;;;;;;24.47;29.98;100987.70;109079;1266;66853;-88
2023/09/29 01:40:45;;;;;;;;;;;;;;;24.47;30.11;100989.80;109086;1266;67480;-88
2023/09/29 01:43:10;;;;;;;;;;;;;;;24.47;29.99;100993.61;109101;1265;67560;-88
2023/09/29 01:45:37;;;;;;;;;;;;;;;24.46;30.04;100996.54;109093;1266;67694;-88
2023/09/29 01:50:40;;;;;;;;;;;;;;;24.45;30.12;100994.02;108982;1266;67464;-88
2023/09/29 01:53:06;;;;;;;;;;;;;;;24.45;29.99;100993.16;109042;1266;67279;-88
2023/09/29 01:55:32;;;;;;;;;;;;;;;24.45;30.00;100998.15;109049;1266;67557;-90
2023/09/29 01:57:57;;;;;;;;;;;;;;;24.45;30.13;100997.08;109040;1265;67601;-89
2023/09/29 02:00:28;;;;;;;;;;;;;;;24.45;30.02;100993.42;109080;1265;67628;-90
2023/09/29 02:05:29;;;;;;;;;;;;;;;24.45;29.92;100997.89;108987;1266;67634;-89
2023/09/29 02:07:55;;;;;;;;;;;;;;;24.43;30.06;100997.60;108923;1266;67667;-89
2023/09/29 02:10:20;;;;;;;;;;;;;;;24.43;30.00;100997.86;109023;1265;67291;-89
2023/09/29 02:12:54;;;;;;;;;;;;;;;24.43;29.98;100995.95;109016;1265;67596;-89
2023/09/29 02:15:19;;;;;;;;;;;;;;;24.42;30.09;100994.67;109014;1266;67529;-88
2023/09/29 02:17:45;;;;;;;;;;;;;;;24.42;30.14;100992.06;109064;1265;67934;-88
2023/09/29 02:20:28;;;;;;;;;;;;;;;24.42;29.97;100992.05;108973;1268;67586;-88
2023/09/29 02:22:55;;;;;;;;;;;;;;;24.41;30.13;100991.70;109098;1265;74113;-88
2023/09/29 02:25:25;;;;;;;;;;;;;;;24.41;30.20;100987.58;109087;1265;67480;-88
2023/09/29 02:27:51;;;;;;;;;;;;;;;24.41;30.20;100991.39;109086;1265;67353;-88
2023/09/29 02:30:16;;;;;;;;;;;;;;;24.40;30.23;100991.44;108948;1265;67679;-89
2023/09/29 02:32:42;;;;;;;;;;;;;;;24.41;30.17;100991.48;108945;1266;67760;-89
2023/09/29 02:35:08;;;;;;;;;;;;;;;24.40;30.21;100995.55;109067;1266;67593;-88
2023/09/29 02:37:33;;;;;;;;;;;;;;;24.40;30.12;100990.21;109110;1265;67661;-88
2023/09/29 02:39:59;;;;;;;;;;;;;;;24.39;30.03;100989.70;109088;1266;67926;-89
2023/09/29 02:42:24;;;;;;;;;;;;;;;24.39;30.26;100991.14;109099;1266;67828;-88
2023/09/29 02:47:26;;;;;;;;;;;;;;;24.38;30.19;100988.92;108904;1268;67545;-89
2023/09/29 02:49:51;;;;;;;;;;;;;;;24.38;30.19;100987.60;108922;1268;67443;-89
2023/09/29 02:52:17;;;;;;;;;;;;;;;24.37;30.16;100992.73;108908;1267;67614;-90
2023/09/29 02:54:42;;;;;;;;;;;;;;;24.36;30.11;100997.17;109015;1267;67751;-90
2023/09/29 02:57:08;;;;;;;;;;;;;;;24.36;30.20;100996.60;109182;1267;67582;-88
2023/09/29 02:59:37;;;;;;;;;;;;;;;24.36;30.21;100996.70;109177;1267;67341;-89
2023/09/29 03:02:03;;;;;;;;;;;;;;;24.36;30.07;100996.66;109178;1266;67199;-88
2023/09/29 03:04:29;;;;;;;;;;;;;;;24.35;30.07;100997.33;109102;1266;67742;-88
2023/09/29 03:06:56;;;;;;;;;;;;;;;24.35;30.16;101000.58;109102;1267;67673;-88
2023/09/29 03:09:22;;;;;;;;;;;;;;;24.35;30.13;101001.20;108996;1265;66989;-89
2023/09/29 03:11:50;;;;;;;;;;;;;;;24.34;30.08;101002.68;108981;1265;67567;-93
2023/09/29 03:14:16;;;;;;;;;;;;;;;24.35;30.29;101002.64;109005;1265;67581;-90
2023/09/29 03:16:41;;;;;;;;;;;;;;;24.35;30.51;101002.28;109105;1265;67279;-88
2023/09/29 03:19:08;;;;;;;;;;;;;;;24.36;30.42;101005.66;109075;1266;67740;-88
2023/09/29 03:21:33;;;;;;;;;;;;;;;24.36;30.58;101001.96;109163;1266;67579;-89
2023/09/29 03:23:59;;;;;;;;;;;;;;;24.36;30.76;101007.92;109140;1266;67754;-90
2023/09/29 03:26:25;;;;;;;;;;;;;;;24.37;30.74;101010.13;109019;1266;66954;-90
2023/09/29 03:28:50;;;;;;;;;;;;;;;24.37;30.83;101012.39;109073;1265;74233;-90
2023/09/29 03:31:16;;;;;;;;;;;;;;;24.36;30.76;101013.94;109087;1265;67668;-90
2023/09/29 03:33:42;;;;;;;;;;;;;;;24.35;30.96;101012.36;108931;1266;67581;-89
2023/09/29 03:36:08;;;;;;;;;;;;;;;24.30;31.09;101010.73;109080;1266;67541;-89
2023/09/29 03:38:37;;;;;;;;;;;;;;;24.25;30.85;101010.36;109139;1265;67522;-93
2023/09/29 03:41:06;;;;;;;;;;;;;;;24.18;30.90;101011.67;109132;1266;75235;-89
2023/09/29 03:43:34;;;;;;;;;;;;;;;24.10;30.85;101009.04;108991;1266;67779;-89
2023/09/29 03:45:59;;;;;;;;;;;;;;;24.01;30.78;101005.42;109081;1266;66963;-90
2023/09/29 03:48:25;;;;;;;;;;;;;;;23.92;30.74;101009.39;108979;1266;67524;-89
2023/09/29 03:50:51;;;;;;;;;;;;;;;23.85;30.69;101008.08;108979;1266;67677;-89
2023/09/29 03:53:16;;;;;;;;;;;;;;;23.79;30.69;101012.36;109077;1266;67516;-89
2023/09/29 03:55:42;;;;;;;;;;;;;;;23.74;30.67;101013.36;108976;1265;66979;-90
2023/09/29 03:58:08;;;;;;;;;;;;;;;23.70;30.58;101016.34;109140;1266;67590;-89
2023/09/29 04:00:33;;;;;;;;;;;;;;;23.66;30.69;101016.20;109150;1265;67579;-89
2023/09/29 04:02:59;;;;;;;;;;;;;;;23.61;30.67;101021.25;108982;1265;67048;-90
2023/09/29 04:08:09;;;;;;;;;;;;;;;23.50;30.63;101020.55;108882;1268;67149;-89
2023/09/29 04:10:36;;;;;;;;;;;;;;;23.46;30.61;101020.45;108909;1266;67619;-89
2023/09/29 04:13:02;;;;;;;;;;;;;;;23.43;30.71;101018.73;109005;1267;67885;-89
2023/09/29 04:15:28;;;;;;;;;;;;;;;23.41;30.61;101020.83;108966;1266;67699;-88
2023/09/29 04:17:56;;;;;;;;;;;;;;;23.38;30.65;101021.90;108976;1266;67676;-88
2023/09/29 04:22:57;;;;;;;;;;;;;;;23.32;30.63;101019.36;109080;1265;67542;-89
2023/09/29 04:25:23;;;;;;;;;;;;;;;23.29;30.58;101020.08;109035;1265;75027;-89
2023/09/29 04:30:48;;;;;;;;;;;;;;;23.26;30.62;101019.35;109076;1265;67638;-91
2023/09/29 06:00:20;;;;;;;;;;;;;;;23.50;30.98;101051.52;108989;1267;68043;-87
2023/09/29 06:02:46;;;;;;;;;;;;;;;23.53;30.83;101051.88;108975;1269;67718;-89
2023/09/29 06:17:32;;;;;;;;;;;;;;;23.64;30.94;101051.86;108599;1266;68158;-88
2023/09/29 07:05:25;;;;;;;;;;;;;;;23.77;30.85;101050.45;109003;1265;66093;-91
2023/09/29 07:42:13;;;;;;;;;;;;;;;24.03;30.76;101054.56;108994;1266;68273;-91
2023/09/29 08:33:41;;;;;;;;;;;;;;;24.25;30.99;101044.45;109051;1266;67783;-92
2023/09/29 09:27:52;;;;;;;;;;;;;;;24.42;30.73;101014.58;109006;1265;67802;-89
2023/09/29 09:50:14;;;;;;;;;;;;;;;24.53;30.43;101020.74;108927;1266;66092;-91
2023/09/29 09:52:54;;;;;;;;;;;;;;;24.54;30.39;101015.80;109251;1263;74437;-91
2023/09/29 09:55:29;;;;;;;;;;;;;;;24.55;30.42;101009.52;108932;1265;67909;-92
2023/09/29 09:57:56;;;;;;;;;;;;;;;24.56;30.51;101008.01;108998;1265;66997;-89
2023/09/29 10:00:26;;;;;;;;;;;;;;;24.57;30.44;101018.34;108874;1266;67580;-89
2023/09/29 10:03:13;;;;;;;;;;;;;;;24.59;30.57;101012.83;109071;1265;67070;-90
2023/09/29 10:17:07;;;;;;;;;;;;;;;24.63;30.40;101007.25;108871;1267;67579;-93
2023/09/29 10:23:09;;;;;;;;;;;;;;;24.64;30.38;100997.00;108567;1267;540449;-91
2023/09/29 10:40:21;;;;;;;;;;;;;;;24.67;30.30;100984.02;109009;1268;67293;-91
2023/09/29 10:48:23;;;;;;;;;;;;;;;24.68;30.31;100973.71;108941;1265;74536;-90
2023/09/29 10:50:56;;;;;;;;;;;;;;;24.69;30.19;100967.42;108768;1267;68022;-91
2023/09/29 10:56:09;;;;;;;;;;;;;;;24.70;30.18;100965.11;109059;1266;65405;-90
2023/09/29 11:24:48;;;;;;;;;;;;;;;24.78;30.21;100949.95;108680;1266;560028;-90
2023/09/29 11:38:51;;;;;;;;;;;;;;;24.79;30.10;100937.23;108087;1267;555137;-92
2023/09/29 11:41:22;;;;;;;;;;;;;;;24.80;30.05;100939.75;108244;1266;560010;-89
2023/09/29 12:28:58;;;;;;;;;;;;;;;24.87;29.74;100905.38;108982;1266;67751;-90
2023/09/29 12:52:08;;;;;;;;;;;;;;;24.92;29.82;100885.57;109253;1266;67101;-90
2023/09/29 13:04:05;;;;;;;;;;;;;;;24.93;29.82;100885.62;108787;1263;548881;-91
2023/09/29 13:35:35;;;;;;;;;;;;;;;24.94;29.73;100884.48;108992;1268;66149;31
2023/09/29 14:10:52;;;;;;;;;;;;;;;24.91;29.85;100880.50;108999;1266;71780;-90
2023/09/29 14:24:45;;;;;;;;;;;;;;;24.93;29.85;100880.72;109027;1266;74712;31
2023/09/29 14:27:10;;;;;;;;;;;;;;;24.94;29.91;100881.34;109028;1266;67502;-89
2023/09/29 14:29:36;;;;;;;;;;;;;;;24.93;29.78;100879.17;108111;1266;537054;-89
2023/09/29 14:32:02;;;;;;;;;;;;;;;24.94;30.09;100877.53;108870;1265;67200;-88
2023/09/29 14:34:27;;;;;;;;;;;;;;;24.94;29.93;100877.13;108993;1266;67568;-88
2023/09/29 14:36:56;;;;;;;;;;;;;;;24.94;29.94;100875.58;109008;1266;67663;-88
2023/09/29 14:39:24;;;;;;;;;;;;;;;24.94;29.67;100874.90;109044;1265;66870;-91
2023/09/29 14:41:50;;;;;;;;;;;;;;;24.94;29.92;100869.39;108973;1265;67573;-89
2023/09/29 14:44:16;;;;;;;;;;;;;;;24.94;29.88;100866.31;108105;1267;545523;-89
2023/09/29 14:46:46;;;;;;;;;;;;;;;24.94;30.00;100866.92;108945;1266;67085;-89
2023/09/29 14:49:13;;;;;;;;;;;;;;;24.94;30.03;100867.95;109075;1266;67292;-89
2023/09/29 14:51:41;;;;;;;;;;;;;;;24.94;30.00;100869.66;108984;1265;67483;-89
2023/09/29 14:59:58;;;;;;;;;;;;;;;24.95;30.11;100871.80;108993;1267;72498;-87
2023/09/29 15:02:24;;;;;;;;;;;;;;;24.95;29.98;100873.56;109022;1265;67632;-89
2023/09/29 15:07:50;;;;;;;;;;;;;;;24.96;29.94;100874.52;108289;1266;534056;-89
2023/09/29 15:26:47;;;;;;;;;;;;;;;24.96;29.84;100883.48;108954;1267;74881;-89
2023/09/29 15:29:18;;;;;;;;;;;;;;;24.96;29.90;100884.56;108365;1266;549518;-89
2023/09/29 15:31:47;;;;;;;;;;;;;;;24.95;29.79;100886.58;109060;1265;67649;-89
2023/09/29 15:34:42;;;;;;;;;;;;;;;24.95;29.96;100886.42;108637;1266;555491;-91
2023/09/29 15:48:16;;;;;;;;;;;;;;;24.94;29.77;100885.41;108766;1265;554657;-89
2023/09/29 15:50:41;;;;;;;;;;;;;;;24.94;29.90;100887.16;109147;1265;67651;-89
2023/09/29 15:53:08;;;;;;;;;;;;;;;24.93;29.97;100885.56;108371;1265;544639;-89
2023/09/29 16:01:07;;;;;;;;;;;;;;;24.93;29.99;100887.89;108696;1268;560475;-89
2023/09/29 16:06:54;;;;;;;;;;;;;;;24.92;29.97;100891.66;108686;1265;529166;-90
2023/09/29 16:12:06;;;;;;;;;;;;;;;24.92;29.77;100896.29;108923;1267;68014;31
2023/09/29 16:14:53;;;;;;;;;;;;;;;24.92;29.87;100898.14;109000;1264;66956;-89
2023/09/29 16:17:33;;;;;;;;;;;;;;;24.92;29.94;100897.84;108941;1267;66886;-89
2023/09/29 16:20:00;;;;;;;;;;;;;;;24.91;30.05;100905.61;108941;1267;67962;-89
2023/09/29 16:25:04;;;;;;;;;;;;;;;24.91;29.76;100909.11;108931;1267;67735;-89
2023/09/29 16:27:29;;;;;;;;;;;;;;;24.91;29.77;100907.27;108964;1267;67646;-90
2023/09/29 16:30:04;;;;;;;;;;;;;;;24.92;29.80;100904.63;108970;1267;67772;-91
2023/09/29 16:32:30;;;;;;;;;;;;;;;24.91;29.92;100911.07;108934;1267;74248;-89
2023/09/29 16:34:58;;;;;;;;;;;;;;;24.91;29.77;100914.16;109013;1267;67555;-89
2023/09/29 16:37:24;;;;;;;;;;;;;;;24.91;29.87;100918.02;109107;1264;67774;-90
2023/09/29 16:39:49;;;;;;;;;;;;;;;24.91;29.91;100922.25;109150;1264;66861;-90
2023/09/29 16:42:15;;;;;;;;;;;;;;;24.91;29.88;100929.09;109100;1264;67005;-90
2023/09/29 16:44:41;;;;;;;;;;;;;;;24.91;29.81;100937.13;109159;1264;67581;-90
2023/09/29 16:47:06;;;;;;;;;;;;;;;24.91;29.82;100940.52;109011;1266;67849;-90
2023/09/29 16:52:14;;;;;;;;;;;;;;;24.90;29.95;100941.61;108998;1266;67533;-90
2023/09/29 16:54:39;;;;;;;;;;;;;;;24.90;30.02;100939.65;108922;1266;67951;-89
2023/09/29 16:57:05;;;;;;;;;;;;;;;24.90;29.98;100943.52;108976;1266;67628;-89
2023/09/29 16:59:31;;;;;;;;;;;;;;;24.90;29.92;100941.50;108940;1266;67401;-89
2023/09/29 17:02:00;;;;;;;;;;;;;;;24.90;30.13;100944.02;109022;1266;66845;-89
2023/09/29 17:04:25;;;;;;;;;;;;;;;24.90;30.03;100942.06;108979;1266;67527;-89
2023/09/29 17:06:51;;;;;;;;;;;;;;;24.90;30.00;100942.79;108977;1266;67004;-89
2023/09/29 17:09:19;;;;;;;;;;;;;;;24.90;29.90;100941.92;108942;1266;67090;-89
2023/09/29 17:11:45;;;;;;;;;;;;;;;24.89;29.95;100942.42;108971;1266;67653;-89
2023/09/29 17:14:13;;;;;;;;;;;;;;;24.90;29.94;100943.87;108997;1266;67632;-89
2023/09/29 17:16:39;;;;;;;;;;;;;;;24.89;30.07;100940.68;108966;1266;67527;-89
2023/09/29 17:19:04;;;;;;;;;;;;;;;24.89;29.99;100941.26;108956;1265;67580;-89
2023/09/29 17:21:30;;;;;;;;;;;;;;;24.89;29.98;100940.83;108979;1266;67998;-89
2023/09/29 17:23:56;;;;;;;;;;;;;;;24.89;29.96;100938.46;108976;1269;67283;-89
2023/09/29 17:26:21;;;;;;;;;;;;;;;24.89;30.15;100942.38;108980;1266;67711;-90
2023/09/29 17:28:47;;;;;;;;;;;;;;;24.88;30.02;100942.19;109014;1265;67892;-89
2023/09/29 17:31:13;;;;;;;;;;;;;;;24.88;29.91;100941.46;109035;1265;67606;-89
2023/09/29 17:33:38;;;;;;;;;;;;;;;24.88;30.03;100945.64;109022;1265;67596;-89
2023/09/29 17:36:04;;;;;;;;;;;;;;;24.88;30.06;100946.81;109064;1266;67528;-89
2023/09/29 17:38:35;;;;;;;;;;;;;;;24.88;30.03;100950.37;109141;1265;74117;-89
2023/09/29 17:41:08;;;;;;;;;;;;;;;24.88;30.17;100950.63;108885;1264;298141;-89
2023/09/29 17:43:41;;;;;;;;;;;;;;;24.88;30.16;100955.30;108248;1265;547258;-85
2023/09/29 17:46:10;;;;;;;;;;;;;;;24.88;30.19;100955.00;109115;1264;67599;-89
2023/09/29 17:48:46;;;;;;;;;;;;;;;24.87;30.02;100960.05;108700;1266;543616;-92
2023/09/29 17:51:18;;;;;;;;;;;;;;;24.88;30.05;100964.02;108812;1264;541641;-91
2023/09/29 17:53:48;;;;;;;;;;;;;;;24.87;30.16;100967.92;108684;1264;533851;-92
2023/09/29 17:56:14;;;;;;;;;;;;;;;24.87;30.02;100967.16;109027;1265;67491;-89
2023/09/29 17:58:41;;;;;;;;;;;;;;;24.86;30.08;100965.58;108977;1265;67797;-90
2023/09/29 18:01:15;;;;;;;;;;;;;;;24.86;30.10;100968.66;108821;1264;542878;-93
2023/09/29 18:03:40;;;;;;;;;;;;;;;24.86;30.00;100971.02;109222;1264;74239;-89
2023/09/29 18:06:13;;;;;;;;;;;;;;;24.86;30.16;100970.88;108629;1266;557474;-91
2023/09/29 18:08:46;;;;;;;;;;;;;;;24.85;30.23;100975.20;109120;1265;66804;31
2023/09/29 18:11:14;;;;;;;;;;;;;;;24.85;30.10;100978.70;109182;1266;67539;-89
2023/09/29 18:13:42;;;;;;;;;;;;;;;24.84;30.18;100980.15;109212;1264;67534;-89
2023/09/29 18:16:09;;;;;;;;;;;;;;;24.84;30.25;100985.34;109075;1267;75080;-89
2023/09/29 18:18:35;;;;;;;;;;;;;;;24.84;30.21;100984.63;109125;1264;68290;-89
2023/09/29 18:21:01;;;;;;;;;;;;;;;24.83;30.16;100987.93;109175;1264;67412;-89
2023/09/29 18:26:04;;;;;;;;;;;;;;;24.82;30.21;100991.95;109043;1266;66823;-89
2023/09/29 18:28:31;;;;;;;;;;;;;;;24.81;30.22;100991.44;109148;1265;67306;-89
2023/09/29 18:30:59;;;;;;;;;;;;;;;24.81;30.26;100992.58;108994;1266;66995;-89
2023/09/29 18:33:28;;;;;;;;;;;;;;;24.81;30.34;100995.09;109178;1264;67087;-89
2023/09/29 18:35:54;;;;;;;;;;;;;;;24.81;30.33;100995.09;109117;1264;67704;-90
2023/09/29 18:40:54;;;;;;;;;;;;;;;24.80;30.27;100991.45;109225;1264;74361;-89
2023/09/29 18:43:20;;;;;;;;;;;;;;;24.80;30.28;100991.27;109189;1264;67029;-89
2023/09/29 18:45:45;;;;;;;;;;;;;;;24.80;30.21;100993.63;109036;1265;67717;-89
2023/09/29 18:48:11;;;;;;;;;;;;;;;24.80;30.28;100996.61;108960;1266;67806;-89
2023/09/29 18:50:40;;;;;;;;;;;;;;;24.79;30.10;100994.25;109136;1263;67640;-88
2023/09/29 18:53:06;;;;;;;;;;;;;;;24.79;30.44;100996.52;109120;1264;74354;-89
2023/09/29 18:55:33;;;;;;;;;;;;;;;24.79;30.38;100999.50;109040;1266;66925;-89
2023/09/29 18:57:59;;;;;;;;;;;;;;;24.78;30.25;100999.81;109010;1266;67550;-87
2023/09/29 19:00:31;;;;;;;;;;;;;;;24.78;30.50;101001.10;109009;1266;67092;-89
2023/09/29 19:02:58;;;;;;;;;;;;;;;24.77;30.30;100998.75;109137;1265;67479;-89
2023/09/29 19:05:44;;;;;;;;;;;;;;;24.77;30.53;101002.29;109248;1264;67282;31
2023/09/29 19:08:10;;;;;;;;;;;;;;;24.76;30.49;101000.39;109243;1264;66916;-90
2023/09/29 19:10:36;;;;;;;;;;;;;;;24.76;30.36;101000.08;109256;1264;67410;-89
2023/09/29 19:13:05;;;;;;;;;;;;;;;24.76;30.28;101002.86;108849;1266;557378;-93
2023/09/29 19:15:31;;;;;;;;;;;;;;;24.76;30.44;101000.50;109071;1264;67938;-88
2023/09/29 19:17:56;;;;;;;;;;;;;;;24.75;30.32;100999.73;109006;1266;67872;-89
2023/09/29 19:20:29;;;;;;;;;;;;;;;24.75;30.29;100998.86;108982;1263;67574;31
2023/09/29 19:22:55;;;;;;;;;;;;;;;24.76;30.15;101002.96;109030;1266;66879;-89
2023/09/29 19:25:22;;;;;;;;;;;;;;;24.75;30.24;101001.73;109189;1264;67472;-88
2023/09/29 19:27:49;;;;;;;;;;;;;;;24.74;30.18;101003.28;109192;1264;67563;-88
2023/09/29 19:30:15;;;;;;;;;;;;;;;24.75;30.42;101001.79;109181;1267;67656;-88
2023/09/29 19:32:42;;;;;;;;;;;;;;;24.74;30.49;101002.05;109148;1264;67801;-88
2023/09/29 19:37:41;;;;;;;;;;;;;;;24.74;30.53;101007.15;109234;1264;66913;-88
2023/09/29 19:40:08;;;;;;;;;;;;;;;24.73;30.34;101003.86;109226;1264;67629;-88
2023/09/29 19:42:36;;;;;;;;;;;;;;;24.73;30.35;101005.40;109079;1266;75141;-88
2023/09/29 19:45:08;;;;;;;;;;;;;;;24.74;30.62;101009.26;108655;1265;557754;-91
2023/09/29 19:47:34;;;;;;;;;;;;;;;24.73;30.60;101009.05;109194;1263;67619;-89
2023/09/29 19:50:00;;;;;;;;;;;;;;;24.73;30.47;101010.55;109049;1264;67552;-89
2023/09/29 19:52:26;;;;;;;;;;;;;;;24.73;30.41;101009.41;109162;1264;67128;-89
2023/09/29 19:54:53;;;;;;;;;;;;;;;24.72;30.54;101009.52;109188;1264;67437;-89
2023/09/29 19:59:59;;;;;;;;;;;;;;;24.72;30.55;101013.03;108383;1264;554811;-93
2023/09/29 20:02:25;;;;;;;;;;;;;;;24.72;30.64;101009.58;109185;1264;67534;-89
2023/09/29 20:04:50;;;;;;;;;;;;;;;24.71;30.54;101012.52;108988;1266;67512;-89
2023/09/29 20:07:16;;;;;;;;;;;;;;;24.71;30.63;101010.10;109229;1264;67499;-89
2023/09/29 20:09:42;;;;;;;;;;;;;;;24.71;30.64;101006.17;109218;1264;66912;-89
2023/09/29 20:12:07;;;;;;;;;;;;;;;24.71;30.73;101006.64;109298;1264;67598;-89
2023/09/29 20:14:33;;;;;;;;;;;;;;;24.71;30.61;101006.48;109098;1264;67692;-89
2023/09/29 20:19:32;;;;;;;;;;;;;;;24.70;30.66;101003.55;109362;1264;67891;-89
2023/09/29 20:22:05;;;;;;;;;;;;;;;24.70;30.50;101003.95;108813;1268;560059;-93
2023/09/29 20:24:31;;;;;;;;;;;;;;;24.70;30.75;101003.80;109460;1264;66896;-89
2023/09/29 20:26:59;;;;;;;;;;;;;;;24.69;30.70;100999.32;109131;1265;67595;-89
2023/09/29 20:29:26;;;;;;;;;;;;;;;24.69;30.74;101000.14;109251;1264;75200;-89
2023/09/29 20:31:52;;;;;;;;;;;;;;;24.69;30.63;101002.52;109289;1265;67626;-89
2023/09/29 20:34:20;;;;;;;;;;;;;;;24.68;30.73;100998.77;108463;1264;558001;-88
2023/09/29 20:36:48;;;;;;;;;;;;;;;24.68;30.75;100999.07;109251;1264;67519;-89
2023/09/29 20:39:13;;;;;;;;;;;;;;;24.67;30.79;100995.73;109208;1264;67502;-89
2023/09/29 20:41:40;;;;;;;;;;;;;;;24.67;30.79;100993.68;109170;1266;67202;-89
2023/09/29 20:44:12;;;;;;;;;;;;;;;24.67;30.95;100995.55;109220;1264;66814;31
2023/09/29 20:46:38;;;;;;;;;;;;;;;24.67;30.82;100995.48;109104;1267;67194;-89
2023/09/29 20:49:04;;;;;;;;;;;;;;;24.66;30.80;100996.16;109154;1264;67739;-89
2023/09/29 20:51:30;;;;;;;;;;;;;;;24.66;30.76;100993.13;109198;1265;67685;-89
2023/09/29 20:53:56;;;;;;;;;;;;;;;24.65;30.73;100993.23;109216;1264;67517;-88
2023/09/29 20:56:26;;;;;;;;;;;;;;;24.66;30.71;100997.20;109172;1263;67612;-89
2023/09/29 21:01:23;;;;;;;;;;;;;;;24.65;30.89;100996.54;109227;1264;66901;-88
2023/09/29 21:03:51;;;;;;;;;;;;;;;24.64;30.90;100994.36;109017;1266;554441;31
2023/09/29 21:06:17;;;;;;;;;;;;;;;24.64;30.91;100992.48;109227;1266;74334;-89
2023/09/29 21:08:47;;;;;;;;;;;;;;;24.64;30.96;100994.17;108825;1264;552146;-93
2023/09/29 21:11:13;;;;;;;;;;;;;;;24.64;30.98;100993.30;109109;1263;67555;-89
2023/09/29 21:13:38;;;;;;;;;;;;;;;24.63;30.83;100991.55;109110;1265;67521;-90
2023/09/29 21:16:07;;;;;;;;;;;;;;;24.63;31.07;100991.24;109223;1264;67648;-90
2023/09/29 21:18:53;;;;;;;;;;;;;;;24.62;30.94;100990.33;108723;1265;554858;-92
2023/09/29 21:21:19;;;;;;;;;;;;;;;24.62;30.95;100990.83;108989;1266;67796;-89
2023/09/29 21:23:45;;;;;;;;;;;;;;;24.61;30.90;100990.64;109022;1267;67911;-89
2023/09/29 21:26:12;;;;;;;;;;;;;;;24.60;31.05;100987.70;108902;1270;66931;-87
2023/09/29 21:28:40;;;;;;;;;;;;;;;24.60;31.20;100987.24;108907;1268;66927;-90
2023/09/29 21:31:08;;;;;;;;;;;;;;;24.60;31.13;100987.60;109060;1267;74002;-89
2023/09/29 21:33:34;;;;;;;;;;;;;;;24.59;30.98;100986.73;108976;1267;66921;-89
2023/09/29 21:36:00;;;;;;;;;;;;;;;24.59;30.91;100988.85;108962;1266;67156;-89
2023/09/29 21:38:29;;;;;;;;;;;;;;;24.59;30.79;100988.90;108600;1265;554766;-93
2023/09/29 21:40:59;;;;;;;;;;;;;;;24.59;30.86;100990.03;109062;1266;66880;-88
2023/09/29 21:43:25;;;;;;;;;;;;;;;24.58;30.92;100989.99;109046;1265;74244;-89
2023/09/29 21:45:51;;;;;;;;;;;;;;;24.58;31.19;100987.41;109004;1266;67603;-89
2023/09/29 21:48:16;;;;;;;;;;;;;;;24.57;31.02;100985.20;108928;1265;67402;-89
2023/09/29 21:50:43;;;;;;;;;;;;;;;24.57;31.12;100984.19;108907;1266;67951;-88
2023/09/29 21:53:11;;;;;;;;;;;;;;;24.57;31.21;100982.89;109019;1266;66946;-89
2023/09/29 22:01:22;;;;;;;;;;;;;;;24.55;31.06;100974.84;108543;1269;559026;-89
2023/09/29 22:03:49;;;;;;;;;;;;;;;24.56;31.08;100975.69;108232;1266;557228;-89
2023/09/29 22:06:15;;;;;;;;;;;;;;;24.55;31.05;100970.63;108880;1267;67087;-89
2023/09/29 22:08:42;;;;;;;;;;;;;;;24.55;31.02;100970.77;108880;1267;67460;-89
2023/09/29 22:11:09;;;;;;;;;;;;;;;24.54;30.88;100973.55;108840;1266;67614;-89
2023/09/29 22:16:15;;;;;;;;;;;;;;;24.54;30.93;100974.08;108891;1269;66912;-89
2023/09/29 22:18:41;;;;;;;;;;;;;;;24.54;30.97;100972.75;108918;1266;67539;-89
2023/09/29 22:21:07;;;;;;;;;;;;;;;24.53;31.06;100968.74;108980;1266;67605;-89
2023/09/29 22:23:32;;;;;;;;;;;;;;;24.53;31.18;100970.23;108894;1268;66953;-89
2023/09/29 22:25:59;;;;;;;;;;;;;;;24.53;30.95;100967.25;108923;1271;67550;-89
2023/09/29 22:28:24;;;;;;;;;;;;;;;24.52;31.11;100968.64;109058;1266;67675;-89
2023/09/29 22:30:51;;;;;;;;;;;;;;;24.52;31.07;100972.09;108304;1267;554131;-89
2023/09/29 22:33:21;;;;;;;;;;;;;;;24.51;30.92;100973.89;108988;1267;67660;-89
2023/09/29 22:35:46;;;;;;;;;;;;;;;24.52;30.94;100971.94;109007;1265;67102;-87
2023/09/29 22:38:15;;;;;;;;;;;;;;;24.51;31.08;100975.27;108941;1267;67582;-88
2023/09/29 22:40:45;;;;;;;;;;;;;;;24.50;31.05;100976.61;108994;1267;67524;31
2023/09/29 22:43:12;;;;;;;;;;;;;;;24.50;31.05;100975.85;108933;1266;75171;-89
2023/09/29 22:45:37;;;;;;;;;;;;;;;24.50;31.14;100973.86;108375;1266;554031;-88
2023/09/29 22:48:03;;;;;;;;;;;;;;;24.50;30.89;100974.81;108912;1266;67615;-89
2023/09/29 22:53:02;;;;;;;;;;;;;;;24.49;30.97;100977.30;108477;1267;554018;-89